Terminal Aerodrome Forecast
Issued by NWS Flagstaff, AZ

Home | Current Version | Previous Version | Text Only | Print | Product List | Glossary On
Versions: 1 2 3 4 5 6 7 8 9 10 11 12 13 14 15 16 17 18 19 20 21 22 23 24 25
000
FTUS45 KFGZ 290500
TAFFLG
TAF
KFLG 290522Z 2906/3006 VRB06KT P6SM SCT120
     FM291900 23010KT P6SM VCTS BKN080CB=

USA.gov is the U.S. government's official web portal to all federal, state and local government web resources and services.